Time;durP1;ratioP1;P1;durP2;ratioP2;P2;SDS_P1;SDS_P2;PMS_P1;PMS_P2;Temp;Humidity;BMP_temperature;BMP_pressure;BME280_temperature;BME280_humidity;BME280_pressure;Samples;Min_cycle;Max_cycle;Signal;HPM_P1;HPM_P2
2023/06/29 00:03:56;;;;;;;3.08;2.65;;;;;;;19.80;53.21;97295.03;6265130;22;20067;31
2023/06/29 00:56:08;;;;;;;2.55;2.25;;;;;;;19.11;53.98;97245.91;6143952;22;20421;-84
2023/06/29 00:58:35;;;;;;;2.80;2.60;;;;;;;19.10;53.67;97241.69;6086257;23;20085;-85
2023/06/29 01:01:00;;;;;;;3.42;2.75;;;;;;;19.04;53.76;97227.81;6107748;23;20556;-85
2023/06/29 01:03:27;;;;;;;3.10;2.60;;;;;;;18.96;53.77;97230.41;6100406;22;20019;-79
2023/06/29 01:05:56;;;;;;;3.75;3.15;;;;;;;19.15;54.21;97254.00;6146260;22;20357;-80
2023/06/29 01:08:28;;;;;;;4.80;3.00;;;;;;;19.10;54.87;97260.16;6146062;22;20176;-80
2023/06/29 01:10:54;;;;;;;4.30;2.85;;;;;;;19.04;54.66;97245.53;6146216;22;20280;-79
2023/06/29 01:13:20;;;;;;;2.88;2.67;;;;;;;19.08;54.54;97251.75;6146208;22;20261;-80
2023/06/29 01:15:46;;;;;;;2.92;2.60;;;;;;;19.07;54.50;97258.09;6183299;22;20183;-80
2023/06/29 01:18:13;;;;;;;3.70;2.70;;;;;;;19.03;54.36;97257.16;6146665;22;20196;-79
2023/06/29 01:20:38;;;;;;;2.97;2.67;;;;;;;19.00;54.45;97247.94;6146486;22;20139;-79
2023/06/29 01:23:36;;;;;;;2.90;2.70;;;;;;;19.13;54.00;97251.66;6121276;22;20232;-80
2023/06/29 01:26:03;;;;;;;2.70;2.50;;;;;;;19.02;54.74;97245.03;6147168;22;20166;-79
2023/06/29 01:28:31;;;;;;;3.78;2.67;;;;;;;18.97;55.00;97248.56;6146420;22;20274;-80
2023/06/29 01:31:02;;;;;;;3.78;3.08;;;;;;;18.88;55.45;97240.59;6147582;22;20113;-79
2023/06/29 01:33:28;;;;;;;3.90;3.10;;;;;;;18.85;55.44;97243.00;6157848;22;20263;-79
2023/06/29 01:36:00;;;;;;;4.07;2.97;;;;;;;18.92;54.75;97245.25;6123113;22;20253;-79
2023/06/29 01:38:51;;;;;;;4.40;3.03;;;;;;;18.93;54.92;97244.19;6157962;22;20257;-79
2023/06/29 01:41:18;;;;;;;4.00;2.83;;;;;;;18.77;55.21;97236.56;6183982;22;20226;-79
2023/06/29 01:43:43;;;;;;;3.10;2.80;;;;;;;18.77;55.24;97241.06;6147756;22;20170;-78
2023/06/29 01:46:09;;;;;;;2.97;2.70;;;;;;;18.72;55.56;97236.66;6146920;22;20190;-79
2023/06/29 01:48:35;;;;;;;2.80;2.50;;;;;;;18.66;55.57;97243.09;6184254;22;20243;-80
2023/06/29 01:51:01;;;;;;;4.40;2.85;;;;;;;18.70;55.06;97233.53;6159650;22;20071;-79
2023/06/29 01:53:27;;;;;;;3.45;3.00;;;;;;;18.66;55.54;97232.56;6146865;22;20231;-79
2023/06/29 01:55:52;;;;;;;4.57;4.15;;;;;;;18.60;55.99;97233.75;6147767;22;20675;-78
2023/06/29 01:58:17;;;;;;;3.92;3.08;;;;;;;18.50;56.08;97232.09;6147316;22;20214;-79
2023/06/29 02:00:44;;;;;;;3.25;2.92;;;;;;;18.49;55.93;97228.69;6147674;22;20189;-79
2023/06/29 02:03:09;;;;;;;3.92;3.30;;;;;;;18.43;56.42;97221.16;6180007;22;20259;-79
2023/06/29 02:05:35;;;;;;;3.92;2.95;;;;;;;18.48;56.27;97228.97;6146708;22;20215;-79
2023/06/29 02:08:00;;;;;;;4.85;3.22;;;;;;;18.47;56.60;97224.75;6147215;22;20535;-79
2023/06/29 02:10:26;;;;;;;3.63;2.90;;;;;;;18.42;56.32;97224.88;6183414;22;20640;-80
2023/06/29 02:12:51;;;;;;;3.40;3.08;;;;;;;18.31;56.78;97216.38;6157126;22;20169;-79
2023/06/29 02:15:17;;;;;;;3.53;3.22;;;;;;;18.36;56.74;97223.41;6156951;22;20135;-79
2023/06/29 02:17:42;;;;;;;3.40;3.10;;;;;;;18.36;56.36;97228.69;6156848;22;20502;-79
2023/06/29 02:20:09;;;;;;;3.78;3.20;;;;;;;18.29;56.63;97218.53;6122190;22;20189;-80
2023/06/29 02:22:34;;;;;;;3.15;2.85;;;;;;;18.28;56.48;97219.59;6210554;22;20154;-79
2023/06/29 02:25:00;;;;;;;3.47;3.17;;;;;;;18.25;56.57;97217.53;6146452;22;20182;-79
2023/06/29 02:27:25;;;;;;;3.33;2.75;;;;;;;18.25;56.55;97214.91;6181982;22;20174;-79
2023/06/29 02:29:50;;;;;;;3.15;2.92;;;;;;;18.25;56.94;97220.16;6157184;22;20768;-79
2023/06/29 02:32:16;;;;;;;3.30;3.00;;;;;;;18.23;56.42;97217.84;6182037;22;20198;-79
2023/06/29 02:34:41;;;;;;;4.68;3.15;;;;;;;18.26;56.33;97216.47;6146753;22;20197;-79
2023/06/29 02:37:06;;;;;;;3.53;3.22;;;;;;;18.30;56.52;97217.44;6146877;22;20190;-78
2023/06/29 02:39:32;;;;;;;4.05;3.40;;;;;;;18.31;56.23;97203.97;6157278;22;20252;-79
2023/06/29 02:41:57;;;;;;;3.85;3.40;;;;;;;18.33;57.23;97208.94;6209813;22;20170;-79
2023/06/29 02:44:23;;;;;;;3.10;2.78;;;;;;;18.35;57.08;97217.34;6145773;22;20162;-79
2023/06/29 02:46:48;;;;;;;3.92;3.22;;;;;;;18.37;57.25;97214.41;6121686;22;20166;-79
2023/06/29 02:49:15;;;;;;;4.20;3.42;;;;;;;18.34;57.19;97221.84;6182674;22;20265;-78
2023/06/29 02:51:40;;;;;;;3.55;3.22;;;;;;;18.34;57.08;97221.06;6171671;22;20174;-79
2023/06/29 02:54:06;;;;;;;3.63;3.00;;;;;;;18.31;57.20;97217.16;6157193;22;20601;-79
2023/06/29 02:56:31;;;;;;;3.40;3.10;;;;;;;18.24;57.04;97205.44;6146904;22;20166;-79
2023/06/29 02:58:56;;;;;;;4.90;4.00;;;;;;;18.24;57.53;97206.22;6182236;22;20076;-79
2023/06/29 03:01:22;;;;;;;4.30;3.40;;;;;;;18.26;57.27;97208.56;6146764;22;20387;-78
2023/06/29 03:03:47;;;;;;;4.15;3.47;;;;;;;18.21;57.74;97200.75;6146064;22;20600;-79
2023/06/29 03:06:13;;;;;;;4.03;3.35;;;;;;;18.16;57.53;97204.25;6182119;22;20220;-79
2023/06/29 03:08:38;;;;;;;3.88;3.58;;;;;;;18.23;57.52;97198.59;6171259;22;20255;-79
2023/06/29 03:11:03;;;;;;;3.78;3.47;;;;;;;18.23;57.27;97188.88;6147325;22;20279;-79
2023/06/29 03:13:29;;;;;;;3.88;3.00;;;;;;;18.28;57.44;97196.66;6156650;22;20182;-78
2023/06/29 03:15:59;;;;;;;3.33;3.03;;;;;;;18.31;57.58;97198.69;6184109;22;20581;-79
2023/06/29 03:18:24;;;;;;;4.88;3.55;;;;;;;18.24;57.51;97185.13;6149343;22;20147;-79
2023/06/29 03:20:50;;;;;;;4.40;3.13;;;;;;;18.26;57.56;97190.88;6174114;22;20169;-78
2023/06/29 03:23:15;;;;;;;3.67;3.38;;;;;;;18.28;57.71;97201.16;6159492;22;20169;-79
2023/06/29 03:25:40;;;;;;;5.25;3.30;;;;;;;18.25;57.58;97199.09;6186051;22;20178;-78
2023/06/29 03:28:06;;;;;;;3.75;3.10;;;;;;;18.30;57.82;97207.69;6157670;22;20573;-78
2023/06/29 03:30:31;;;;;;;3.85;2.72;;;;;;;18.31;57.88;97200.56;6157925;22;20202;-79
2023/06/29 03:32:58;;;;;;;3.50;2.95;;;;;;;18.33;58.25;97199.22;6122106;22;20322;-79
2023/06/29 03:35:24;;;;;;;3.85;3.45;;;;;;;18.37;57.94;97193.31;6147599;22;20162;-79
2023/06/29 03:37:50;;;;;;;4.55;3.53;;;;;;;18.42;57.62;97187.94;6157903;22;20177;-79
2023/06/29 03:40:16;;;;;;;3.08;2.80;;;;;;;18.45;58.09;97196.06;6158349;22;20135;-79
2023/06/29 03:42:41;;;;;;;3.50;3.08;;;;;;;18.48;57.38;97189.41;6157412;22;20173;-79
2023/06/29 03:45:07;;;;;;;3.72;3.42;;;;;;;18.55;57.95;97194.28;6121410;22;20171;-79
2023/06/29 03:47:32;;;;;;;3.40;3.10;;;;;;;18.54;57.62;97185.59;6183833;22;20585;-78
2023/06/29 03:49:58;;;;;;;3.28;2.95;;;;;;;18.58;57.68;97185.81;6123545;22;20280;-79
2023/06/29 03:52:23;;;;;;;3.45;3.15;;;;;;;18.59;57.01;97187.34;6157928;22;20181;-79
2023/06/29 03:54:49;;;;;;;3.30;3.00;;;;;;;18.59;57.35;97185.47;6158146;22;20233;-79
2023/06/29 03:57:15;;;;;;;3.40;3.10;;;;;;;18.61;57.60;97188.63;6148322;22;20251;-79
2023/06/29 03:59:40;;;;;;;3.15;2.92;;;;;;;18.59;57.53;97184.72;6183651;22;20165;-80
2023/06/29 04:02:06;;;;;;;3.65;3.40;;;;;;;18.61;57.34;97193.09;6147938;22;20159;-79
2023/06/29 04:04:31;;;;;;;3.13;2.90;;;;;;;18.60;57.28;97188.91;6149095;22;20249;-79
2023/06/29 04:06:56;;;;;;;3.42;3.13;;;;;;;18.68;56.65;97189.00;6148004;22;20244;-79
2023/06/29 04:09:22;;;;;;;3.25;3.05;;;;;;;18.69;56.88;97184.50;6183665;22;20825;-79
2023/06/29 04:11:47;;;;;;;5.57;3.60;;;;;;;18.66;57.12;97179.81;6158802;22;20167;-79
2023/06/29 04:14:12;;;;;;;3.40;3.08;;;;;;;18.62;57.40;97170.94;6121828;22;20727;-79
2023/06/29 04:16:38;;;;;;;3.65;3.35;;;;;;;18.69;57.47;97180.00;6183402;22;20084;-79
2023/06/29 04:19:03;;;;;;;4.95;3.50;;;;;;;18.72;57.53;97179.41;6147525;22;20187;-79
2023/06/29 04:21:48;;;;;;;;;;;;;;;18.97;56.93;97174.69;6176800;22;20188;-79
2023/06/29 04:24:14;;;;;;;3.70;3.40;;;;;;;18.85;57.52;97172.56;6173187;22;20055;-79
2023/06/29 04:26:41;;;;;;;3.55;3.25;;;;;;;18.84;57.55;97160.44;6121668;22;20220;-78
2023/06/29 04:29:06;;;;;;;3.70;3.33;;;;;;;18.83;57.06;97158.09;6183431;22;20256;-79
2023/06/29 04:31:32;;;;;;;4.03;3.42;;;;;;;18.85;57.44;97163.88;6182753;22;20240;-79
2023/06/29 04:33:58;;;;;;;4.20;2.85;;;;;;;18.82;57.49;97167.09;6211339;22;20330;-79
2023/06/29 04:36:24;;;;;;;4.18;3.60;;;;;;;18.77;57.85;97162.69;6146042;22;20578;-79
2023/06/29 04:38:50;;;;;;;3.65;3.10;;;;;;;18.77;57.88;97160.06;6173190;22;20206;-79
2023/06/29 04:41:16;;;;;;;4.70;3.35;;;;;;;18.81;58.31;97165.50;6123092;22;20655;-79
2023/06/29 04:43:41;;;;;;;3.58;3.28;;;;;;;18.85;58.05;97167.31;6122723;22;20260;-79
2023/06/29 04:46:07;;;;;;;3.40;3.10;;;;;;;18.83;57.74;97168.66;6121885;22;20189;-79
2023/06/29 04:48:38;;;;;;;4.18;3.20;;;;;;;18.84;57.87;97171.00;6147757;22;20172;-80
2023/06/29 04:51:07;;;;;;;3.47;3.17;;;;;;;18.87;57.90;97173.06;6184427;22;20526;-79
2023/06/29 04:53:35;;;;;;;4.97;3.17;;;;;;;18.93;57.94;97175.56;6121734;22;20250;-78
2023/06/29 04:56:03;;;;;;;3.53;3.17;;;;;;;18.95;57.87;97168.13;6157607;22;20581;-78
2023/06/29 04:58:29;;;;;;;5.07;3.78;;;;;;;18.95;58.18;97165.50;6158447;22;20144;-79
2023/06/29 05:00:54;;;;;;;4.75;3.63;;;;;;;19.07;58.09;97171.81;6120814;22;20293;-79
2023/06/29 05:03:20;;;;;;;4.60;3.70;;;;;;;19.17;58.12;97168.16;6170970;22;20182;-79
2023/06/29 05:05:45;;;;;;;4.05;3.70;;;;;;;19.25;57.26;97158.75;6156197;22;20283;-79
2023/06/29 05:08:11;;;;;;;3.47;3.00;;;;;;;19.43;56.83;97167.53;6181935;22;20260;-79
2023/06/29 05:10:36;;;;;;;3.72;3.22;;;;;;;19.54;56.37;97155.66;6120827;22;20263;-79
2023/06/29 05:13:02;;;;;;;3.47;3.00;;;;;;;19.69;55.74;97157.13;6145706;22;20079;-79
2023/06/29 05:15:28;;;;;;;3.28;2.97;;;;;;;19.83;55.78;97160.47;6156001;22;20267;-79
2023/06/29 05:17:54;;;;;;;3.63;3.33;;;;;;;19.93;55.47;97158.63;6146574;22;20143;-79
2023/06/29 05:20:19;;;;;;;3.95;3.47;;;;;;;20.10;55.04;97171.13;6146565;22;20588;-79
2023/06/29 05:22:45;;;;;;;3.65;3.08;;;;;;;20.18;54.76;97163.22;6155275;22;20193;-79
2023/06/29 05:25:10;;;;;;;3.65;3.42;;;;;;;20.34;54.44;97165.44;6156926;22;20181;-79
2023/06/29 05:27:36;;;;;;;3.40;3.10;;;;;;;20.48;54.72;97165.34;6145125;22;20184;-79
2023/06/29 05:30:02;;;;;;;5.40;3.67;;;;;;;20.67;53.90;97165.06;6181039;22;20306;-79
2023/06/29 05:32:28;;;;;;;3.72;3.42;;;;;;;20.79;54.38;97159.94;6120815;22;20206;-79
2023/06/29 05:34:53;;;;;;;3.15;2.85;;;;;;;20.96;54.11;97156.53;6148485;22;20147;-80
2023/06/29 05:37:20;;;;;;;5.68;4.28;;;;;;;21.17;54.18;97156.66;6159823;22;20253;-80
2023/06/29 05:39:46;;;;;;;4.25;3.60;;;;;;;21.26;53.43;97154.75;6167734;22;20070;-79
2023/06/29 05:42:12;;;;;;;3.83;3.50;;;;;;;21.48;52.96;97155.69;6172974;22;20234;-80
2023/06/29 05:44:37;;;;;;;4.10;3.65;;;;;;;21.68;52.75;97154.22;6130692;22;20084;-80
2023/06/29 05:47:03;;;;;;;3.65;3.35;;;;;;;21.81;52.25;97160.41;6150335;22;20147;-79
2023/06/29 05:49:28;;;;;;;4.15;3.75;;;;;;;21.89;51.78;97155.06;6157287;22;20170;-79
2023/06/29 05:51:54;;;;;;;4.97;3.78;;;;;;;22.11;51.19;97155.16;6125649;22;20151;-79
2023/06/29 05:54:19;;;;;;;3.80;3.40;;;;;;;22.32;51.26;97157.88;6145226;22;20190;-79
2023/06/29 05:56:45;;;;;;;4.07;3.30;;;;;;;22.50;49.97;97158.53;6147598;22;20318;-80
2023/06/29 05:59:10;;;;;;;4.28;3.33;;;;;;;22.57;49.80;97146.31;6122400;22;20586;-80
2023/06/29 06:01:35;;;;;;;4.00;3.53;;;;;;;22.61;48.79;97149.09;6122843;22;20137;-80
2023/06/29 06:04:02;;;;;;;3.45;3.15;;;;;;;22.63;48.91;97146.88;6146576;22;20587;-80
2023/06/29 06:06:30;;;;;;;4.32;3.10;;;;;;;22.71;48.86;97150.59;6147370;22;20257;-79
2023/06/29 06:08:56;;;;;;;3.60;2.78;;;;;;;22.77;48.42;97151.94;6122608;22;20174;-79
2023/06/29 06:11:22;;;;;;;3.08;2.78;;;;;;;22.77;48.02;97144.75;6158315;22;20139;-80
2023/06/29 06:13:47;;;;;;;3.28;2.97;;;;;;;22.79;47.83;97136.44;6182548;22;20166;-80
2023/06/29 06:16:13;;;;;;;3.53;2.97;;;;;;;22.90;47.51;97150.91;6157807;22;20292;-80
2023/06/29 06:18:38;;;;;;;4.35;2.60;;;;;;;22.98;47.36;97147.41;6158568;22;20613;-80
2023/06/29 06:21:03;;;;;;;3.30;2.88;;;;;;;23.00;46.36;97142.53;6147152;22;20217;-80
2023/06/29 06:23:29;;;;;;;3.75;2.88;;;;;;;23.13;47.01;97140.75;6122495;22;20147;-80
2023/06/29 06:25:54;;;;;;;3.42;3.13;;;;;;;23.23;46.15;97141.41;6122097;22;20271;-80
2023/06/29 06:28:20;;;;;;;3.33;2.63;;;;;;;23.37;46.80;97141.88;6146169;22;20170;-80
2023/06/29 06:30:46;;;;;;;4.55;2.80;;;;;;;23.44;46.72;97141.34;6147063;22;20185;-80
2023/06/29 06:33:12;;;;;;;3.25;3.05;;;;;;;23.62;46.12;97136.63;6157622;22;20150;-80
2023/06/29 06:35:38;;;;;;;3.90;2.58;;;;;;;23.79;46.42;97135.66;6147646;22;20552;-80
2023/06/29 06:38:03;;;;;;;3.47;2.45;;;;;;;24.02;45.62;97138.66;6120650;22;20554;-80
2023/06/29 06:40:28;;;;;;;3.08;2.78;;;;;;;24.20;44.85;97134.66;6180897;22;20260;-80
2023/06/29 06:42:54;;;;;;;3.10;2.60;;;;;;;24.36;45.10;97137.41;6121342;22;20582;-80
2023/06/29 06:45:19;;;;;;;3.35;3.05;;;;;;;24.53;45.64;97140.94;6146611;22;20253;-80
2023/06/29 06:47:44;;;;;;;2.80;2.60;;;;;;;24.59;46.05;97142.28;6157300;22;20174;-80
2023/06/29 06:50:10;;;;;;;2.88;2.67;;;;;;;24.64;45.52;97147.34;6124187;22;20185;-80
2023/06/29 06:52:35;;;;;;;3.03;2.72;;;;;;;24.71;46.04;97147.59;6184490;22;20174;-80
2023/06/29 06:55:01;;;;;;;2.63;2.42;;;;;;;24.73;45.26;97140.03;6124406;22;20224;-81
2023/06/29 06:57:26;;;;;;;3.35;2.60;;;;;;;24.81;43.25;97136.47;6173450;22;20147;-80
2023/06/29 06:59:52;;;;;;;3.30;3.10;;;;;;;24.94;43.33;97149.72;6159273;22;20200;-80
2023/06/29 07:02:17;;;;;;;2.78;2.20;;;;;;;25.00;43.72;97148.34;6149198;22;20193;-81
2023/06/29 07:04:43;;;;;;;3.83;2.50;;;;;;;25.05;43.04;97148.09;6148869;22;20248;-81
2023/06/29 07:07:08;;;;;;;2.58;2.38;;;;;;;25.12;42.19;97150.19;6122406;22;20092;-80
2023/06/29 07:09:34;;;;;;;2.42;2.22;;;;;;;25.17;42.00;97153.41;6124345;22;20354;-81
2023/06/29 07:11:59;;;;;;;3.30;2.53;;;;;;;25.23;43.36;97152.03;6149660;22;20656;-80
2023/06/29 07:14:25;;;;;;;3.30;2.80;;;;;;;25.26;43.12;97155.16;6158363;22;20229;-80
2023/06/29 07:16:50;;;;;;;3.60;3.05;;;;;;;25.23;42.68;97146.69;6148910;22;20326;-81
2023/06/29 07:19:16;;;;;;;3.85;2.45;;;;;;;25.36;43.31;97151.97;6147830;22;20597;-80
2023/06/29 07:21:41;;;;;;;5.32;3.30;;;;;;;25.39;42.89;97156.63;6158704;22;20617;-82
2023/06/29 07:24:08;;;;;;;6.97;2.90;;;;;;;25.50;41.53;97144.38;6183950;22;20089;-80
2023/06/29 07:26:33;;;;;;;3.08;2.20;;;;;;;25.55;41.92;97146.78;6122861;22;20597;-80
2023/06/29 07:28:59;;;;;;;2.97;2.70;;;;;;;25.56;41.47;97142.22;6123741;22;20287;-80
2023/06/29 07:31:25;;;;;;;3.00;2.80;;;;;;;25.64;41.04;97143.94;6184617;22;20639;-80
2023/06/29 07:33:53;;;;;;;2.60;2.50;;;;;;;25.87;40.46;97146.00;6183838;22;20515;-81
2023/06/29 07:36:21;;;;;;;2.80;2.60;;;;;;;25.95;41.25;97142.41;6160696;22;20257;-80
2023/06/29 07:38:47;;;;;;;3.25;2.92;;;;;;;26.15;41.30;97146.69;6150093;22;20626;-81
2023/06/29 07:41:13;;;;;;;2.92;2.63;;;;;;;26.30;41.03;97147.78;6185288;22;20285;-80
2023/06/29 07:43:47;;;;;;;2.90;2.70;;;;;;;26.48;40.14;97150.06;6185010;22;20328;-80
2023/06/29 07:46:12;;;;;;;3.15;2.85;;;;;;;26.56;40.78;97143.72;6158749;22;20177;-80
2023/06/29 07:48:37;;;;;;;2.63;2.42;;;;;;;26.64;40.20;97134.75;6125094;22;20139;-81
2023/06/29 07:51:06;;;;;;;3.10;2.30;;;;;;;26.62;40.44;97131.69;6125011;22;20237;-82
2023/06/29 07:53:31;;;;;;;3.80;3.10;;;;;;;26.41;40.25;97136.53;6150664;22;20288;-80
2023/06/29 07:55:58;;;;;;;3.17;2.92;;;;;;;26.51;39.53;97136.00;6159944;22;20256;-81
2023/06/29 07:58:23;;;;;;;3.13;2.47;;;;;;;26.34;39.91;97131.84;6149941;22;20541;-81
2023/06/29 08:01:14;;;;;;;2.90;2.70;;;;;;;26.30;40.46;97137.09;6159296;22;20658;-81
2023/06/29 08:03:39;;;;;;;3.13;2.80;;;;;;;26.34;40.65;97137.94;6209193;22;20297;-80
2023/06/29 08:06:05;;;;;;;2.92;2.70;;;;;;;26.45;40.88;97143.50;6149780;22;20528;-82
2023/06/29 08:08:30;;;;;;;3.08;2.78;;;;;;;26.26;39.88;97135.47;6149661;22;20158;-81
2023/06/29 08:10:58;;;;;;;2.55;2.35;;;;;;;26.36;40.34;97134.94;6184841;22;20082;-81
2023/06/29 08:13:24;;;;;;;2.83;2.63;;;;;;;26.30;41.27;97129.09;6124230;22;20264;-80
2023/06/29 08:15:49;;;;;;;3.58;2.80;;;;;;;26.41;40.17;97126.66;6159590;22;20145;-81
2023/06/29 08:18:15;;;;;;;6.40;2.90;;;;;;;26.25;40.71;97118.69;6124913;22;20589;-80
2023/06/29 08:20:41;;;;;;;3.30;2.70;;;;;;;26.31;40.75;97132.53;6123973;22;20256;-81
2023/06/29 08:23:06;;;;;;;3.08;2.78;;;;;;;26.32;40.43;97129.53;6124384;22;20297;-81
2023/06/29 08:25:32;;;;;;;2.85;2.33;;;;;;;26.32;40.76;97134.06;6123914;22;20158;-81
2023/06/29 08:27:57;;;;;;;3.08;2.78;;;;;;;26.35;39.19;97126.13;6149048;22;20157;-80
2023/06/29 08:30:23;;;;;;;3.17;2.95;;;;;;;26.30;39.83;97125.63;6148442;22;20414;-81
2023/06/29 08:32:48;;;;;;;3.10;2.80;;;;;;;26.24;40.02;97127.81;6158286;22;20273;-81
2023/06/29 08:35:14;;;;;;;3.63;2.78;;;;;;;26.28;40.24;97128.66;6149006;22;20213;-80
2023/06/29 08:37:40;;;;;;;2.67;2.10;;;;;;;26.22;40.00;97129.25;6149133;22;20158;-80
2023/06/29 08:40:06;;;;;;;2.80;2.58;;;;;;;26.24;39.70;97137.72;6124481;22;20228;-80
2023/06/29 08:42:32;;;;;;;3.13;2.72;;;;;;;26.20;39.35;97134.97;6159112;22;20190;-80
2023/06/29 08:44:57;;;;;;;4.22;2.47;;;;;;;26.26;39.92;97136.25;6184932;22;20766;-81
2023/06/29 08:47:24;;;;;;;2.80;2.50;;;;;;;26.24;39.33;97127.81;6184853;22;20170;-81
2023/06/29 08:49:52;;;;;;;3.05;2.78;;;;;;;26.30;39.48;97133.66;6184266;22;20268;-80
2023/06/29 08:52:18;;;;;;;4.28;2.70;;;;;;;26.26;39.47;97132.81;6183141;22;20535;-81
2023/06/29 08:54:45;;;;;;;2.97;2.78;;;;;;;26.24;39.73;97127.81;6123294;22;20161;-80
2023/06/29 08:57:10;;;;;;;2.75;2.55;;;;;;;26.32;39.30;97132.19;6183807;22;20292;-81
2023/06/29 08:59:40;;;;;;;2.97;2.60;;;;;;;26.50;39.37;97124.53;6123916;22;20225;-81
2023/06/29 09:02:06;;;;;;;2.90;2.70;;;;;;;26.72;39.52;97119.66;6148083;22;20231;-81
2023/06/29 09:04:31;;;;;;;3.08;2.50;;;;;;;27.05;39.06;97115.69;6147854;22;20173;-81
2023/06/29 09:06:56;;;;;;;3.63;3.35;;;;;;;27.19;38.30;97118.63;6158685;22;20252;-81
2023/06/29 09:09:22;;;;;;;3.47;2.78;;;;;;;27.04;37.85;97116.81;6124342;22;20056;-83
2023/06/29 09:11:48;;;;;;;3.42;2.53;;;;;;;27.04;38.21;97119.50;6182987;22;20366;-81
2023/06/29 09:14:13;;;;;;;3.13;2.83;;;;;;;27.02;38.27;97114.50;6157777;22;20174;-81
2023/06/29 09:16:50;;;;;;;2.80;2.60;;;;;;;27.41;37.88;97122.47;6148480;22;20162;-84
2023/06/29 09:19:16;;;;;;;3.97;2.75;;;;;;;27.41;38.56;97111.00;6183736;22;20324;-82
2023/06/29 09:21:45;;;;;;;3.00;2.80;;;;;;;27.61;38.64;97103.72;6159798;22;20158;-83
2023/06/29 09:24:11;;;;;;;3.00;2.80;;;;;;;27.76;38.07;97115.38;6165980;22;20104;-82
2023/06/29 09:26:36;;;;;;;2.90;2.58;;;;;;;27.78;37.46;97113.16;6147805;22;20170;-82
2023/06/29 09:29:03;;;;;;;2.90;2.67;;;;;;;27.60;36.57;97116.28;6183174;22;20227;-82
2023/06/29 09:31:35;;;;;;;2.67;2.47;;;;;;;27.51;36.60;97109.66;6124448;22;20197;-82
2023/06/29 09:34:20;;;;;;;2.70;2.50;;;;;;;27.78;37.16;97118.50;6158295;22;20366;-82
2023/06/29 09:36:46;;;;;;;3.15;2.92;;;;;;;27.67;38.05;97118.31;6147983;22;20177;-82
2023/06/29 09:39:14;;;;;;;3.42;3.05;;;;;;;27.60;36.87;97113.63;6123251;22;20182;-82
2023/06/29 09:41:50;;;;;;;3.70;3.13;;;;;;;27.81;37.19;97123.09;6158594;22;20166;-83
2023/06/29 09:44:19;;;;;;;3.25;2.95;;;;;;;27.64;37.16;97113.66;6147320;22;20272;-83
2023/06/29 09:46:48;;;;;;;2.90;2.70;;;;;;;27.77;36.17;97117.69;6157474;22;20087;-82
2023/06/29 09:49:14;;;;;;;3.05;2.42;;;;;;;27.64;36.27;97111.00;6123360;22;20598;-83
2023/06/29 09:51:40;;;;;;;2.80;2.60;;;;;;;27.86;35.68;97114.00;6183814;22;20166;-82
2023/06/29 09:54:10;;;;;;;2.92;2.65;;;;;;;27.90;35.54;97120.19;6183033;22;20089;-82
2023/06/29 09:56:37;;;;;;;2.85;2.63;;;;;;;27.92;35.89;97112.63;6158235;22;20177;-82
2023/06/29 09:59:09;;;;;;;2.72;2.63;;;;;;;27.99;35.92;97112.72;6160305;22;20255;-83
2023/06/29 10:01:35;;;;;;;3.00;2.78;;;;;;;27.93;35.65;97114.13;6151111;22;20155;-82
2023/06/29 10:04:02;;;;;;;2.88;2.63;;;;;;;27.86;35.80;97105.97;6178844;22;20275;-82
2023/06/29 10:06:38;;;;;;;2.75;2.55;;;;;;;28.01;35.44;97108.53;6125274;22;20174;-84
2023/06/29 10:09:04;;;;;;;2.72;2.30;;;;;;;28.14;35.29;97109.09;6184864;22;20236;-82
2023/06/29 10:11:31;;;;;;;3.22;2.83;;;;;;;28.39;34.88;97105.97;6149274;22;20166;-81
2023/06/29 10:14:00;;;;;;;2.85;2.55;;;;;;;28.46;34.12;97102.63;6147784;22;20201;-82
2023/06/29 10:16:26;;;;;;;3.20;2.90;;;;;;;28.61;32.72;97104.34;6147845;22;20291;-82
2023/06/29 10:18:54;;;;;;;3.10;2.90;;;;;;;28.69;33.46;97099.88;6146536;22;20445;-82
2023/06/29 10:21:20;;;;;;;2.88;2.58;;;;;;;28.75;33.34;97103.75;6159605;22;20139;-82
2023/06/29 10:23:46;;;;;;;3.63;2.92;;;;;;;28.63;34.16;97106.69;6149133;22;20205;-82
2023/06/29 10:26:11;;;;;;;2.53;2.33;;;;;;;28.51;33.90;97105.72;6160034;22;20234;-81
2023/06/29 10:28:37;;;;;;;2.80;2.60;;;;;;;28.66;33.36;97105.94;6185748;22;20182;-81
2023/06/29 10:31:03;;;;;;;3.22;2.88;;;;;;;28.58;33.58;97105.88;6124492;22;20151;-82
2023/06/29 10:33:28;;;;;;;3.28;3.05;;;;;;;28.78;33.29;97103.03;6184999;22;20176;-82
2023/06/29 10:35:58;;;;;;;3.28;2.67;;;;;;;28.77;33.39;97104.16;6184656;22;20214;-82
2023/06/29 10:38:31;;;;;;;3.42;2.30;;;;;;;28.45;33.57;97099.19;6151595;22;20691;-81
2023/06/29 10:40:56;;;;;;;2.65;2.53;;;;;;;28.50;33.44;97104.22;6150209;22;20246;-82
2023/06/29 10:43:27;;;;;;;3.05;2.80;;;;;;;28.60;33.76;97099.38;6124498;22;20693;-81
2023/06/29 10:45:53;;;;;;;3.42;2.85;;;;;;;28.69;33.78;97100.63;6174654;22;20175;-82
2023/06/29 10:48:19;;;;;;;2.90;2.60;;;;;;;28.72;33.86;97099.91;6149464;22;20189;-81
2023/06/29 10:50:49;;;;;;;3.63;3.10;;;;;;;28.95;33.65;97096.31;6174358;22;20169;-81
2023/06/29 10:53:16;;;;;;;3.38;2.70;;;;;;;29.00;34.21;97087.19;6149941;22;20252;-83
2023/06/29 10:55:51;;;;;;;3.00;2.80;;;;;;;29.16;32.70;97093.09;6159610;22;20239;-82
2023/06/29 10:58:23;;;;;;;3.38;2.80;;;;;;;29.11;33.92;97096.84;6186243;22;20181;-82
2023/06/29 11:00:51;;;;;;;3.83;3.38;;;;;;;29.11;32.37;97088.03;6164579;22;20765;-81
2023/06/29 11:03:18;;;;;;;3.33;3.13;;;;;;;29.17;32.40;97086.59;6159951;22;20177;-80
2023/06/29 11:05:47;;;;;;;3.40;3.10;;;;;;;29.23;32.46;97085.09;6191072;22;20256;-82
2023/06/29 11:08:12;;;;;;;3.95;3.55;;;;;;;29.10;32.55;97086.50;6152308;22;20260;-81
2023/06/29 11:10:37;;;;;;;3.45;3.25;;;;;;;28.86;33.24;97088.56;6124858;22;20221;-80
2023/06/29 11:13:08;;;;;;;4.25;3.45;;;;;;;28.77;33.74;97085.38;6158708;22;20181;-81
2023/06/29 11:15:34;;;;;;;4.47;3.47;;;;;;;28.52;34.85;97083.19;6160111;22;20263;-81
2023/06/29 11:18:04;;;;;;;3.90;3.60;;;;;;;28.57;34.33;97080.22;6125348;22;20189;-82
2023/06/29 11:20:29;;;;;;;4.20;3.80;;;;;;;28.48;34.43;97081.59;6125435;22;20593;-81
2023/06/29 11:22:57;;;;;;;4.28;3.92;;;;;;;28.74;34.14;97073.50;6149346;22;20214;-82
2023/06/29 11:25:22;;;;;;;3.85;3.47;;;;;;;28.92;33.44;97089.00;6124694;22;20701;-81
2023/06/29 11:27:48;;;;;;;4.07;3.67;;;;;;;28.70;34.50;97072.72;6149308;22;20321;-83
2023/06/29 11:30:14;;;;;;;3.67;3.38;;;;;;;28.70;34.09;97075.38;6124252;22;20324;-81
2023/06/29 11:32:40;;;;;;;4.03;3.20;;;;;;;28.69;34.96;97075.75;6159477;22;20649;-81
2023/06/29 11:35:10;;;;;;;3.33;3.10;;;;;;;28.55;34.46;97066.41;6162048;22;20158;-81
2023/06/29 11:37:37;;;;;;;3.50;3.30;;;;;;;28.55;35.20;97074.44;6151118;22;20230;-81
2023/06/29 11:40:09;;;;;;;3.80;3.47;;;;;;;28.60;34.61;97067.22;6186470;22;20185;-81
2023/06/29 11:42:36;;;;;;;3.42;3.22;;;;;;;28.71;34.89;97079.59;6188915;22;20220;-81
2023/06/29 11:45:06;;;;;;;3.55;3.25;;;;;;;28.81;34.60;97072.06;6123728;22;20189;-81
2023/06/29 11:47:32;;;;;;;3.70;3.40;;;;;;;28.98;34.08;97071.47;6158991;22;20158;-80
2023/06/29 11:49:59;;;;;;;3.35;3.03;;;;;;;29.12;33.48;97073.50;6129154;22;20597;-81
2023/06/29 11:52:26;;;;;;;4.20;3.20;;;;;;;29.13;33.84;97064.31;6160585;22;20256;-81
2023/06/29 11:54:52;;;;;;;4.90;3.60;;;;;;;29.24;34.51;97061.75;6159821;22;20181;-81
2023/06/29 11:57:17;;;;;;;3.65;3.28;;;;;;;29.18;33.85;97053.28;6123885;22;20147;-81
2023/06/29 11:59:45;;;;;;;3.80;3.50;;;;;;;29.20;33.90;97060.94;6184264;22;20263;-81
2023/06/29 12:02:10;;;;;;;4.00;3.70;;;;;;;29.28;34.14;97049.16;6173047;22;20612;-81
2023/06/29 12:04:36;;;;;;;21.13;4.75;;;;;;;29.56;33.87;97048.59;6124319;22;20237;-81
2023/06/29 12:07:01;;;;;;;4.00;3.60;;;;;;;29.58;33.40;97045.53;6184907;22;20186;-82
2023/06/29 12:09:31;;;;;;;4.28;3.50;;;;;;;29.68;33.12;97044.84;6124183;22;20182;-82
2023/06/29 12:11:59;;;;;;;3.95;3.53;;;;;;;29.44;34.21;97040.84;6150344;22;20753;-82
2023/06/29 12:14:29;;;;;;;4.57;3.47;;;;;;;29.41;33.99;97052.31;6184346;22;20662;-82
2023/06/29 12:16:57;;;;;;;5.45;3.63;;;;;;;29.27;33.67;97043.03;6159160;22;20221;-82
2023/06/29 12:19:26;;;;;;;4.13;3.83;;;;;;;29.36;33.84;97034.66;6149362;22;20299;-81
2023/06/29 12:21:51;;;;;;;4.63;4.22;;;;;;;29.13;33.15;97038.28;6183393;22;20303;-81
2023/06/29 12:24:16;;;;;;;5.15;3.83;;;;;;;29.09;33.92;97039.38;6123037;22;20256;-81